Time;durP1;ratioP1;P1;durP2;ratioP2;P2;SDS_P1;SDS_P2;PMS_P1;PMS_P2;Temp;Humidity;BMP_temperature;BMP_pressure;BME280_temperature;BME280_humidity;BME280_pressure;Samples;Min_cycle;Max_cycle;Signal;HPM_P1;HPM_P2
2024/01/23 00:01:43;;;;;;;1.80;0.50;;;;;;;6.67;97.15;100638.22;5053512;28;20497;-69
2024/01/23 00:04:11;;;;;;;1.60;0.40;;;;;;;6.68;97.05;100631.75;5053329;28;20447;-69
2024/01/23 00:06:37;;;;;;;2.70;0.90;;;;;;;6.66;97.31;100631.22;5053536;28;20431;-68
2024/01/23 00:09:04;;;;;;;2.47;0.70;;;;;;;6.70;97.28;100640.38;5053369;28;20462;-69
2024/01/23 00:11:31;;;;;;;1.83;0.60;;;;;;;6.76;96.63;100641.94;5053237;28;20469;-68
2024/01/23 00:13:58;;;;;;;2.20;0.70;;;;;;;6.77;96.22;100642.75;5053317;28;20954;-68
2024/01/23 00:16:24;;;;;;;2.00;0.70;;;;;;;6.80;96.22;100656.47;5053314;28;20787;-68
2024/01/23 00:18:51;;;;;;;2.53;0.80;;;;;;;6.85;95.54;100662.94;5052902;28;20517;-68
2024/01/23 00:21:19;;;;;;;2.60;1.03;;;;;;;6.87;95.53;100658.91;5052873;28;20434;-69
2024/01/23 00:23:45;;;;;;;1.80;0.60;;;;;;;7.05;93.98;100669.06;5053252;28;20528;-68
2024/01/23 00:26:12;;;;;;;1.80;0.40;;;;;;;7.19;92.28;100669.28;5053502;28;20438;-68
2024/01/23 00:28:39;;;;;;;1.63;0.47;;;;;;;7.33;91.54;100686.44;5053690;28;20525;-68
2024/01/23 00:31:06;;;;;;;1.77;0.60;;;;;;;7.36;91.77;100689.69;5053118;28;20442;-68
2024/01/23 00:33:32;;;;;;;2.80;0.80;;;;;;;7.30;93.29;100691.56;5052729;28;20973;-68
2024/01/23 00:35:59;;;;;;;1.70;0.50;;;;;;;7.15;95.25;100692.44;5053065;28;20700;-68
2024/01/23 00:38:27;;;;;;;1.90;0.70;;;;;;;7.00;96.65;100687.13;5053649;28;20438;-69
2024/01/23 00:40:53;;;;;;;1.60;0.50;;;;;;;6.85;98.53;100676.38;5052955;28;20568;-68
2024/01/23 00:43:20;;;;;;;1.57;0.37;;;;;;;6.74;100.00;100689.88;5052635;28;20554;-68
2024/01/23 00:45:47;;;;;;;1.67;0.50;;;;;;;6.68;100.00;100690.94;5052988;28;20496;-69
2024/01/23 00:48:13;;;;;;;1.90;0.60;;;;;;;6.61;100.00;100684.25;5053012;28;20525;-69
2024/01/23 00:50:40;;;;;;;1.90;0.63;;;;;;;6.44;100.00;100673.78;5052974;28;20462;-69
2024/01/23 00:53:06;;;;;;;2.40;0.70;;;;;;;6.36;100.00;100666.25;5053330;28;21031;-68
2024/01/23 00:55:34;;;;;;;2.37;0.60;;;;;;;6.26;100.00;100681.31;5056667;28;20442;-68
2024/01/23 00:58:01;;;;;;;2.10;0.83;;;;;;;6.19;100.00;100679.97;5057078;28;20536;-68
2024/01/23 01:00:29;;;;;;;3.30;0.70;;;;;;;6.13;100.00;100668.41;5056631;28;20513;-68
2024/01/23 01:02:56;;;;;;;1.60;0.40;;;;;;;6.04;100.00;100664.66;5056569;28;20466;-68
2024/01/23 01:05:23;;;;;;;1.90;0.53;;;;;;;5.96;100.00;100663.31;5056244;28;20446;-68
2024/01/23 01:07:49;;;;;;;1.80;0.50;;;;;;;5.96;100.00;100667.88;5056781;28;20464;-68
2024/01/23 01:10:16;;;;;;;1.60;0.37;;;;;;;5.82;100.00;100679.13;5056911;28;20507;-68
2024/01/23 01:12:44;;;;;;;2.00;0.80;;;;;;;5.79;100.00;100684.22;5056542;28;20565;-68
2024/01/23 01:15:11;;;;;;;1.80;0.53;;;;;;;5.75;100.00;100675.06;5056732;28;20477;-68
2024/01/23 01:17:38;;;;;;;2.17;0.70;;;;;;;5.73;100.00;100682.59;5056322;28;20530;-68
2024/01/23 01:20:05;;;;;;;1.50;0.30;;;;;;;5.67;100.00;100676.41;5056550;28;20580;-68
2024/01/23 01:22:32;;;;;;;2.60;0.77;;;;;;;5.73;100.00;100686.09;5056189;28;20489;-68
2024/01/23 01:24:59;;;;;;;1.60;0.40;;;;;;;5.72;100.00;100684.50;5056232;28;20867;-68
2024/01/23 01:27:25;;;;;;;1.60;0.40;;;;;;;5.69;100.00;100679.63;5055798;28;20525;-68
2024/01/23 01:29:53;;;;;;;1.50;0.30;;;;;;;5.68;100.00;100685.28;5056084;28;20525;-68
2024/01/23 01:32:20;;;;;;;6.40;1.07;;;;;;;5.65;100.00;100673.19;5055681;28;20867;-68
2024/01/23 01:34:46;;;;;;;1.57;0.40;;;;;;;5.64;100.00;100676.94;5056069;28;20521;-68
2024/01/23 01:37:13;;;;;;;1.60;0.40;;;;;;;5.65;100.00;100686.63;5055634;28;20528;-68
2024/01/23 01:39:39;;;;;;;1.70;0.57;;;;;;;5.61;100.00;100684.72;5056198;28;20482;-68
2024/01/23 01:42:06;;;;;;;1.50;0.30;;;;;;;5.55;100.00;100690.09;5055539;28;20549;-69
2024/01/23 01:44:34;;;;;;;1.63;0.50;;;;;;;5.51;100.00;100689.00;5056402;28;20868;-69
2024/01/23 01:47:04;;;;;;;1.53;0.40;;;;;;;5.49;100.00;100696.53;5055785;28;20466;-70
2024/01/23 01:49:30;;;;;;;1.80;0.57;;;;;;;5.45;100.00;100700.00;5055736;28;20584;-69
2024/01/23 01:51:57;;;;;;;1.57;0.30;;;;;;;5.41;100.00;100694.34;5055930;28;20550;-69
2024/01/23 01:54:24;;;;;;;1.60;0.40;;;;;;;5.39;100.00;100688.41;5056384;28;20464;-69
2024/01/23 01:56:52;;;;;;;1.60;0.40;;;;;;;5.43;100.00;100691.41;5055573;28;20465;-69
2024/01/23 01:59:20;;;;;;;1.93;0.53;;;;;;;5.46;100.00;100693.56;5055578;28;20525;-69
2024/01/23 02:01:47;;;;;;;1.60;0.40;;;;;;;5.41;100.00;100699.72;5055472;28;20557;-69
2024/01/23 02:04:15;;;;;;;1.90;0.70;;;;;;;5.42;100.00;100700.53;5055103;28;20477;-69
2024/01/23 02:06:42;;;;;;;1.80;0.67;;;;;;;5.42;100.00;100705.91;5055120;28;21013;-69
2024/01/23 02:09:10;;;;;;;1.70;0.60;;;;;;;5.41;100.00;100699.72;5055710;28;20442;-69
2024/01/23 02:11:36;;;;;;;1.60;0.40;;;;;;;5.45;100.00;100694.63;5055262;28;20458;-69
2024/01/23 02:14:03;;;;;;;1.90;0.70;;;;;;;5.44;100.00;100691.13;5055304;28;20533;-69
2024/01/23 02:16:30;;;;;;;1.60;0.40;;;;;;;5.49;100.00;100685.78;5055593;28;20438;-69
2024/01/23 02:18:56;;;;;;;1.70;0.60;;;;;;;5.50;100.00;100697.34;5055559;28;20456;-69
2024/01/23 02:21:24;;;;;;;1.60;0.40;;;;;;;5.48;100.00;100702.97;5055127;28;20906;-69
2024/01/23 02:23:52;;;;;;;1.70;0.50;;;;;;;5.46;100.00;100704.31;5055019;28;20933;-69
2024/01/23 02:26:19;;;;;;;1.60;0.50;;;;;;;5.46;100.00;100693.56;5055047;28;20545;-69
2024/01/23 02:28:45;;;;;;;1.60;0.40;;;;;;;5.50;100.00;100681.22;5055110;28;20517;-69
2024/01/23 02:31:12;;;;;;;1.50;0.30;;;;;;;5.46;100.00;100680.13;5054885;28;20534;-69
2024/01/23 02:33:39;;;;;;;1.60;0.53;;;;;;;5.44;100.00;100687.63;5055360;28;20442;-69
2024/01/23 02:36:06;;;;;;;1.60;0.40;;;;;;;5.51;100.00;100690.88;5054806;28;20525;-69
2024/01/23 02:38:32;;;;;;;1.50;0.40;;;;;;;5.51;100.00;100685.50;5054613;28;20788;-69
2024/01/23 02:41:02;;;;;;;4.13;0.60;;;;;;;5.53;100.00;100686.03;5054615;28;20521;-69
2024/01/23 02:43:28;;;;;;;1.77;0.50;;;;;;;5.59;100.00;100690.38;5054189;28;20482;-69
2024/01/23 02:45:55;;;;;;;2.17;0.60;;;;;;;5.58;100.00;100686.06;5054636;28;20487;-69
2024/01/23 02:48:21;;;;;;;1.77;0.63;;;;;;;5.56;100.00;100690.91;5054296;28;20464;-69
2024/01/23 02:50:48;;;;;;;1.77;0.50;;;;;;;5.60;100.00;100689.28;5054606;28;20462;-69
2024/01/23 02:53:15;;;;;;;1.73;0.50;;;;;;;5.64;100.00;100703.81;5054448;28;20872;-68
2024/01/23 02:55:42;;;;;;;1.80;0.70;;;;;;;5.65;100.00;100685.81;5054700;28;20529;-68
2024/01/23 02:58:10;;;;;;;1.50;0.30;;;;;;;5.68;100.00;100715.66;5054468;28;20801;-68
2024/01/23 03:00:39;;;;;;;2.33;0.67;;;;;;;5.70;100.00;100705.44;5054367;28;20488;-68
2024/01/23 03:03:07;;;;;;;1.70;0.53;;;;;;;5.65;100.00;100697.38;5054295;28;20805;-68
2024/01/23 03:05:34;;;;;;;2.10;0.50;;;;;;;5.68;100.00;100710.28;5054674;28;20442;-68
2024/01/23 03:08:00;;;;;;;1.60;0.50;;;;;;;5.71;100.00;100709.75;5054194;28;20525;-69
2024/01/23 03:10:27;;;;;;;1.77;0.70;;;;;;;5.72;100.00;100721.31;5054323;28;20443;-69
2024/01/23 03:12:54;;;;;;;1.50;0.30;;;;;;;5.78;100.00;100702.22;5054170;28;20478;-69
2024/01/23 03:15:22;;;;;;;1.60;0.40;;;;;;;5.83;100.00;100718.34;5053692;28;20442;-68
2024/01/23 03:17:49;;;;;;;2.77;0.97;;;;;;;5.83;100.00;100707.59;5053856;28;20446;-68
2024/01/23 03:20:15;;;;;;;2.47;0.90;;;;;;;5.84;100.00;100721.84;5054353;28;20585;-68
2024/01/23 03:22:42;;;;;;;1.70;0.50;;;;;;;5.83;100.00;100734.47;5053970;28;20469;-67
2024/01/23 03:25:09;;;;;;;1.50;0.30;;;;;;;5.82;100.00;100732.06;5053661;28;20977;-69
2024/01/23 03:27:36;;;;;;;1.50;0.30;;;;;;;5.81;100.00;100733.97;5053621;28;20525;-68
2024/01/23 03:30:02;;;;;;;1.70;0.50;;;;;;;5.80;100.00;100734.22;5053872;28;20437;-68
2024/01/23 03:32:30;;;;;;;1.50;0.40;;;;;;;5.78;100.00;100745.22;5053761;28;20831;-68
2024/01/23 03:34:57;;;;;;;1.57;0.40;;;;;;;5.83;100.00;100749.81;5053487;28;20997;-68
2024/01/23 03:37:23;;;;;;;1.67;0.47;;;;;;;5.83;100.00;100745.25;5053427;28;20934;-68
2024/01/23 03:39:50;;;;;;;1.50;0.30;;;;;;;5.88;100.00;100746.31;5053702;28;20445;-68
2024/01/23 03:42:17;;;;;;;1.50;0.30;;;;;;;5.80;100.00;100748.47;5053524;28;20461;-68
2024/01/23 03:44:43;;;;;;;1.80;0.60;;;;;;;5.76;100.00;100754.66;5053887;28;20449;-68
2024/01/23 03:47:10;;;;;;;1.53;0.40;;;;;;;5.73;100.00;100750.59;5053651;28;20446;-68
2024/01/23 03:49:38;;;;;;;1.90;0.47;;;;;;;5.70;100.00;100761.06;5054089;28;20466;-68
2024/01/23 03:52:05;;;;;;;5.00;0.80;;;;;;;5.67;100.00;100758.91;5053163;28;21007;-69
2024/01/23 03:54:32;;;;;;;1.60;0.40;;;;;;;5.62;100.00;100753.50;5053990;28;20460;-68
2024/01/23 03:56:58;;;;;;;2.57;0.50;;;;;;;5.68;100.00;100760.53;5053232;28;20500;-69
2024/01/23 03:59:25;;;;;;;1.90;0.50;;;;;;;5.69;100.00;100764.81;5053929;28;20810;-68
2024/01/23 04:01:51;;;;;;;1.70;0.40;;;;;;;5.71;100.00;100774.25;5053633;28;20486;-68
2024/01/23 04:04:20;;;;;;;1.60;0.40;;;;;;;5.70;100.00;100772.63;5053432;28;20537;-68
2024/01/23 04:06:48;;;;;;;1.50;0.30;;;;;;;5.67;100.00;100767.78;5053779;28;20442;-68
2024/01/23 04:09:14;;;;;;;1.60;0.40;;;;;;;5.63;100.00;100769.38;5053366;28;20446;-68
2024/01/23 04:11:44;;;;;;;1.53;0.37;;;;;;;5.62;100.00;100783.88;5053328;28;20549;-68
2024/01/23 04:14:12;;;;;;;2.17;0.93;;;;;;;5.59;100.00;100784.41;5053309;28;20484;-68
2024/01/23 04:16:38;;;;;;;1.60;0.40;;;;;;;5.56;100.00;100777.66;5053650;28;20434;-68
2024/01/23 04:19:05;;;;;;;1.70;0.50;;;;;;;5.56;100.00;100795.69;5053245;28;20525;-68
2024/01/23 04:21:32;;;;;;;2.43;0.50;;;;;;;5.63;100.00;100798.94;5053243;28;20576;-68
2024/01/23 04:24:00;;;;;;;1.80;0.50;;;;;;;5.67;100.00;100809.97;5052932;28;20537;-68
2024/01/23 04:26:26;;;;;;;1.60;0.40;;;;;;;5.61;100.00;100817.19;5052888;28;20489;-68
2024/01/23 04:28:53;;;;;;;1.50;0.30;;;;;;;5.61;100.00;100822.56;5057002;28;20442;-69
2024/01/23 04:31:20;;;;;;;1.50;0.30;;;;;;;5.65;100.00;100834.41;5056841;28;20957;-69
2024/01/23 04:33:47;;;;;;;1.70;0.60;;;;;;;5.59;100.00;100835.47;5057168;28;20529;-69
2024/01/23 04:36:14;;;;;;;1.90;0.67;;;;;;;5.56;100.00;100833.28;5057384;28;20450;-69
2024/01/23 04:38:42;;;;;;;2.37;0.67;;;;;;;5.59;100.00;100838.16;5057131;28;20449;-69
2024/01/23 04:41:10;;;;;;;4.70;0.67;;;;;;;5.51;100.00;100841.31;5056771;28;21092;-69
2024/01/23 04:43:37;;;;;;;1.60;0.50;;;;;;;5.46;100.00;100835.94;5057067;28;20458;-69
2024/01/23 04:46:04;;;;;;;3.87;0.83;;;;;;;5.43;100.00;100836.44;5057283;28;20442;-69
2024/01/23 04:48:30;;;;;;;1.60;0.40;;;;;;;5.49;100.00;100846.13;5056581;28;20486;-69
2024/01/23 04:50:57;;;;;;;1.60;0.40;;;;;;;5.49;100.00;100846.13;5056858;28;20860;-69
2024/01/23 04:53:27;;;;;;;1.60;0.40;;;;;;;5.48;100.00;100858.75;5056790;28;20512;-69
2024/01/23 04:55:54;;;;;;;2.40;0.60;;;;;;;5.51;100.00;100860.94;5057489;28;20438;-69
2024/01/23 04:58:22;;;;;;;3.97;0.87;;;;;;;5.60;100.00;100853.19;5056946;28;20465;-69
2024/01/23 05:00:48;;;;;;;1.50;0.40;;;;;;;5.58;100.00;100860.72;5056839;28;20492;-69
2024/01/23 05:03:15;;;;;;;1.60;0.40;;;;;;;5.47;100.00;100875.16;5056587;28;20489;-71
2024/01/23 05:05:41;;;;;;;1.83;0.67;;;;;;;5.50;100.00;100867.38;5056297;28;20472;-69
2024/01/23 05:08:08;;;;;;;1.80;0.50;;;;;;;5.48;100.00;100871.38;5056349;28;20842;-70
2024/01/23 05:10:35;;;;;;;1.60;0.40;;;;;;;5.55;100.00;100888.09;5056454;28;20442;-68
2024/01/23 05:13:01;;;;;;;1.53;0.40;;;;;;;5.50;100.00;100890.75;5056731;28;20937;-68
2024/01/23 05:15:29;;;;;;;1.60;0.40;;;;;;;5.46;100.00;100884.28;5056540;28;20530;-68
2024/01/23 05:17:56;;;;;;;2.60;0.60;;;;;;;5.37;100.00;100896.59;5056349;28;20484;-68
2024/01/23 05:20:23;;;;;;;1.60;0.40;;;;;;;5.38;100.00;100903.56;5056275;28;20525;-68
2024/01/23 05:22:49;;;;;;;2.30;0.83;;;;;;;5.29;100.00;100909.41;5056238;28;20488;-68
2024/01/23 05:25:17;;;;;;;2.43;0.73;;;;;;;5.25;100.00;100916.38;5056270;28;20525;-68
2024/01/23 05:27:44;;;;;;;1.50;0.40;;;;;;;5.25;100.00;100913.69;5056211;28;20934;-68
2024/01/23 05:30:12;;;;;;;1.60;0.40;;;;;;;5.20;100.00;100918.22;5056060;28;20450;-68
2024/01/23 05:32:40;;;;;;;1.60;0.40;;;;;;;5.14;100.00;100930.78;5055838;28;20505;-68
2024/01/23 05:35:07;;;;;;;1.80;0.50;;;;;;;5.12;100.00;100932.09;5055721;28;20530;-68
2024/01/23 05:37:33;;;;;;;1.50;0.40;;;;;;;5.08;100.00;100934.47;5055635;28;20529;-68
2024/01/23 05:40:00;;;;;;;1.50;0.30;;;;;;;5.07;100.00;100935.56;5054631;28;21009;-68
2024/01/23 05:42:27;;;;;;;1.53;0.30;;;;;;;5.07;100.00;100941.72;5055500;28;20500;-68
2024/01/23 05:44:53;;;;;;;1.50;0.30;;;;;;;5.06;100.00;100940.13;5056310;28;20776;-68
2024/01/23 05:47:20;;;;;;;1.80;0.70;;;;;;;5.08;100.00;100942.53;5055617;28;20456;-68
2024/01/23 05:49:48;;;;;;;4.33;1.13;;;;;;;5.00;100.00;100951.06;5055432;28;20892;-68
2024/01/23 05:52:15;;;;;;;1.60;0.40;;;;;;;5.00;100.00;100967.16;5055686;28;20450;-68
2024/01/23 05:54:44;;;;;;;1.50;0.40;;;;;;;4.98;100.00;100962.06;5055646;28;20438;-68
2024/01/23 05:57:11;;;;;;;1.50;0.40;;;;;;;5.06;100.00;100966.16;5055296;28;20550;-68
2024/01/23 05:59:38;;;;;;;1.50;0.37;;;;;;;5.01;100.00;100968.81;5054983;28;20811;-68
2024/01/23 06:02:04;;;;;;;1.57;0.40;;;;;;;4.98;100.00;100972.78;5055378;28;20851;-68
2024/01/23 06:04:31;;;;;;;1.77;0.47;;;;;;;5.04;100.00;100984.38;5055499;28;20846;-68
2024/01/23 06:06:59;;;;;;;1.50;0.40;;;;;;;5.07;100.00;100983.88;5055138;28;20473;-68
2024/01/23 06:09:26;;;;;;;1.50;0.30;;;;;;;5.08;100.00;100977.44;5055367;28;20438;-68
2024/01/23 06:11:53;;;;;;;2.07;0.50;;;;;;;5.16;100.00;100982.34;5055466;28;20462;-68
2024/01/23 06:14:19;;;;;;;1.60;0.40;;;;;;;5.18;100.00;100990.13;5054984;28;20879;-68
2024/01/23 06:16:45;;;;;;;1.60;0.50;;;;;;;5.16;100.00;101003.03;5055421;28;20538;-68
2024/01/23 06:19:12;;;;;;;1.60;0.40;;;;;;;5.19;100.00;100995.28;5055675;28;20524;-68
2024/01/23 06:21:39;;;;;;;1.80;0.60;;;;;;;5.19;100.00;101006.00;5054775;28;20227;-68
2024/01/23 06:24:07;;;;;;;1.53;0.33;;;;;;;5.27;100.00;101019.00;5055050;28;20594;-68
2024/01/23 06:26:34;;;;;;;9.07;0.50;;;;;;;5.31;100.00;101017.41;5055196;28;20434;-68
2024/01/23 06:29:01;;;;;;;1.67;0.50;;;;;;;5.30;100.00;101013.09;5054743;28;20438;-68
2024/01/23 06:31:28;;;;;;;2.20;0.70;;;;;;;5.31;100.00;101017.41;5055064;28;20439;-69
2024/01/23 06:33:55;;;;;;;1.60;0.50;;;;;;;5.40;100.00;101020.44;5054528;28;21017;-69
2024/01/23 06:36:22;;;;;;;1.50;0.40;;;;;;;5.46;100.00;101030.16;5055167;28;20442;-69
2024/01/23 06:38:49;;;;;;;1.50;0.40;;;;;;;5.48;100.00;101037.94;5054557;28;20488;-68
2024/01/23 06:41:17;;;;;;;1.50;0.30;;;;;;;5.52;100.00;101033.69;5055029;28;20493;-68
2024/01/23 06:43:43;;;;;;;1.60;0.40;;;;;;;5.57;100.00;101029.16;5054317;28;20907;-68
2024/01/23 06:46:10;;;;;;;2.87;0.87;;;;;;;5.58;100.00;101030.00;5055092;28;20477;-68
2024/01/23 06:48:37;;;;;;;1.60;0.40;;;;;;;5.65;100.00;101041.31;5054615;28;20782;-68
2024/01/23 06:51:04;;;;;;;1.50;0.30;;;;;;;5.70;100.00;101049.41;5054032;28;20450;-68
2024/01/23 06:53:30;;;;;;;1.57;0.40;;;;;;;5.64;100.00;101055.03;5054972;28;20486;-68
2024/01/23 06:55:57;;;;;;;2.07;0.73;;;;;;;5.61;100.00;101059.03;5054463;28;20529;-68
2024/01/23 06:58:25;;;;;;;1.57;0.40;;;;;;;5.67;100.00;101063.38;5054620;28;20520;-68
2024/01/23 07:00:52;;;;;;;1.77;0.43;;;;;;;5.73;100.00;101075.78;5054365;28;20442;-70
2024/01/23 07:03:19;;;;;;;2.27;0.70;;;;;;;5.74;100.00;101074.72;5054312;28;20969;-71
2024/01/23 07:05:45;;;;;;;2.97;0.70;;;;;;;5.74;100.00;101085.47;5054537;28;20477;-71
2024/01/23 07:08:12;;;;;;;1.73;0.43;;;;;;;5.75;100.00;101087.09;5054629;28;20438;-66
2024/01/23 07:10:39;;;;;;;3.97;0.77;;;;;;;5.76;100.00;101088.72;5054312;28;20442;-71
2024/01/23 07:13:05;;;;;;;3.70;1.03;;;;;;;5.81;100.00;101091.44;5054707;28;20486;-70
2024/01/23 07:15:34;;;;;;;1.63;0.37;;;;;;;5.84;100.00;101092.81;5054220;28;20442;-70
2024/01/23 07:18:00;;;;;;;1.80;0.60;;;;;;;5.85;100.00;101090.94;5054204;28;20442;-69
2024/01/23 07:20:27;;;;;;;2.23;0.53;;;;;;;5.90;100.00;101096.34;5054104;28;20521;-70
2024/01/23 07:22:54;;;;;;;6.70;0.90;;;;;;;5.88;100.00;101107.34;5053818;28;20573;-68
2024/01/23 07:25:20;;;;;;;2.00;0.70;;;;;;;5.93;100.00;101118.19;5054341;28;20767;-69
2024/01/23 07:27:47;;;;;;;4.13;0.40;;;;;;;6.02;100.00;101113.13;5054215;28;20907;-68
2024/01/23 07:30:14;;;;;;;1.50;0.30;;;;;;;6.04;100.00;101092.19;5053893;28;20434;-69
2024/01/23 07:32:42;;;;;;;2.17;0.47;;;;;;;6.04;100.00;101100.25;5054186;28;20541;-68
2024/01/23 07:35:10;;;;;;;3.67;1.30;;;;;;;6.02;100.00;101111.28;5053825;28;20496;-68
2024/01/23 07:37:36;;;;;;;1.60;0.40;;;;;;;6.05;100.00;101107.25;5053763;28;20521;-68
2024/01/23 07:40:03;;;;;;;4.10;0.80;;;;;;;6.11;100.00;101110.78;5053853;28;20438;-68
2024/01/23 07:42:29;;;;;;;1.80;0.60;;;;;;;6.06;100.00;101108.84;5053445;28;20492;-68
2024/01/23 07:44:56;;;;;;;1.60;0.40;;;;;;;6.13;100.00;101105.97;5053741;28;20430;-68
2024/01/23 07:47:23;;;;;;;1.70;0.60;;;;;;;6.14;100.00;101110.28;5053954;28;20484;-68
2024/01/23 07:49:51;;;;;;;1.50;0.40;;;;;;;6.18;99.82;101104.13;5053285;28;20442;-68
2024/01/23 07:52:19;;;;;;;1.90;0.50;;;;;;;6.17;99.79;101110.56;5053513;28;20880;-68
2024/01/23 07:54:45;;;;;;;1.90;0.50;;;;;;;6.18;100.00;101100.63;5053218;28;20886;-68
2024/01/23 07:57:12;;;;;;;1.50;0.30;;;;;;;6.20;99.27;101096.63;5053606;28;20548;-68
2024/01/23 07:59:40;;;;;;;1.80;0.47;;;;;;;6.15;99.36;101107.31;5053518;28;20486;-69
2024/01/23 08:02:07;;;;;;;1.60;0.40;;;;;;;6.20;98.41;101112.75;5053066;28;20485;-68
2024/01/23 08:04:33;;;;;;;1.60;0.43;;;;;;;6.18;98.13;101117.56;5053553;28;20442;-68
2024/01/23 08:07:01;;;;;;;2.00;0.83;;;;;;;6.18;98.43;101128.31;5053451;28;20503;-68
2024/01/23 08:09:28;;;;;;;1.77;0.80;;;;;;;6.20;98.13;101104.69;5053435;28;20469;-68
2024/01/23 08:11:54;;;;;;;1.53;0.40;;;;;;;6.24;98.24;101115.72;5053045;28;20531;-68
2024/01/23 08:14:22;;;;;;;1.60;0.47;;;;;;;6.35;97.38;101138.94;5053420;28;20500;-68
2024/01/23 08:16:48;;;;;;;1.50;0.30;;;;;;;6.41;96.97;101150.53;5053446;28;20537;-68
2024/01/23 08:19:15;;;;;;;2.63;0.80;;;;;;;6.45;96.29;101144.38;5053880;28;20443;-68
2024/01/23 08:21:42;;;;;;;1.97;0.80;;;;;;;6.46;96.69;101156.78;5053194;28;21005;-68
2024/01/23 08:24:10;;;;;;;1.50;0.40;;;;;;;6.48;96.09;101143.88;5053633;28;20445;-67
2024/01/23 08:26:36;;;;;;;2.87;0.60;;;;;;;6.48;96.04;101143.06;5053251;28;20441;-68
2024/01/23 08:29:03;;;;;;;2.30;0.70;;;;;;;6.61;95.13;101147.19;5053270;28;20973;-69
2024/01/23 08:31:30;;;;;;;1.60;0.40;;;;;;;6.69;94.22;101150.19;5053215;28;20494;-69
2024/01/23 08:33:57;;;;;;;1.90;0.60;;;;;;;6.67;94.33;101152.31;5053541;28;20444;-68
2024/01/23 08:36:24;;;;;;;25.27;0.70;;;;;;;6.71;94.22;101155.28;5053113;28;20488;-68
2024/01/23 08:38:50;;;;;;;1.60;0.40;;;;;;;6.70;94.41;101159.88;5053058;28;20469;-69
2024/01/23 08:41:18;;;;;;;3.23;0.63;;;;;;;6.79;93.42;101169.06;5053110;28;20551;-71
2024/01/23 08:43:45;;;;;;;1.57;0.40;;;;;;;6.80;93.48;101176.06;5052884;28;20900;-71
2024/01/23 08:46:13;;;;;;;1.60;0.40;;;;;;;6.79;93.76;101179.84;5052955;28;20949;-71
2024/01/23 08:48:40;;;;;;;1.60;0.40;;;;;;;6.77;93.71;101186.53;5052972;28;20541;-70
2024/01/23 08:51:07;;;;;;;1.60;0.40;;;;;;;6.77;94.02;101186.53;5053025;28;20463;-70
2024/01/23 08:53:33;;;;;;;1.60;0.40;;;;;;;6.79;94.24;101189.81;5053241;28;20431;-70
2024/01/23 08:56:00;;;;;;;1.60;0.40;;;;;;;6.84;93.58;101189.84;5053014;28;20885;-69
2024/01/23 08:58:28;;;;;;;1.80;0.63;;;;;;;6.90;93.34;101193.34;5052631;28;20485;-69
2024/01/23 09:00:54;;;;;;;1.53;0.40;;;;;;;6.99;92.36;101197.16;5053062;28;20525;-70
2024/01/23 09:03:21;;;;;;;1.70;0.40;;;;;;;7.00;92.81;101206.91;5052764;28;20486;-69
2024/01/23 09:05:50;;;;;;;1.60;0.40;;;;;;;6.99;92.11;101207.94;5052586;28;21001;-70
2024/01/23 09:08:16;;;;;;;1.90;0.80;;;;;;;7.05;91.07;101207.72;5052918;28;20919;-69
2024/01/23 09:10:43;;;;;;;2.90;0.77;;;;;;;7.05;92.14;101215.00;5052923;28;20532;-69
2024/01/23 09:13:10;;;;;;;2.60;0.60;;;;;;;7.11;91.73;101230.09;5052695;28;20640;-69
2024/01/23 09:15:38;;;;;;;1.50;0.30;;;;;;;7.18;90.44;101217.22;5055774;28;20469;-70
2024/01/23 09:18:05;;;;;;;3.20;0.70;;;;;;;7.17;89.93;101234.47;5056673;28;20481;-70
2024/01/23 09:20:32;;;;;;;2.13;0.70;;;;;;;7.20;90.26;101230.41;5056325;28;20449;-69
2024/01/23 09:22:59;;;;;;;1.57;0.40;;;;;;;7.24;90.50;101239.59;5055913;28;20494;-69
2024/01/23 09:25:26;;;;;;;1.70;0.40;;;;;;;7.31;89.22;101251.75;5056600;28;20448;-69
2024/01/23 09:27:52;;;;;;;2.47;0.70;;;;;;;7.32;89.12;101250.69;5056207;28;20500;-70
2024/01/23 09:30:19;;;;;;;2.07;0.47;;;;;;;7.41;89.36;101255.56;5056508;28;20525;-70
2024/01/23 09:32:47;;;;;;;1.70;0.50;;;;;;;7.48;88.93;101261.50;5056073;28;20464;-70
2024/01/23 09:35:14;;;;;;;1.87;0.60;;;;;;;7.52;88.49;101268.81;5056375;28;20533;-70
2024/01/23 09:37:40;;;;;;;1.60;0.30;;;;;;;7.61;87.96;101260.22;5055965;28;20466;-70
2024/01/23 09:40:09;;;;;;;1.60;0.40;;;;;;;7.63;88.74;101277.78;5056020;28;20537;-69
2024/01/23 09:42:38;;;;;;;1.80;0.57;;;;;;;7.71;88.47;101284.53;5055511;28;20581;-69
2024/01/23 09:45:10;;;;;;;1.60;0.40;;;;;;;7.79;87.74;101292.94;5055928;28;20439;-69
2024/01/23 09:47:37;;;;;;;1.80;0.70;;;;;;;7.94;85.98;101278.66;5055836;28;20506;-70
2024/01/23 09:50:08;;;;;;;3.30;0.57;;;;;;;7.89;85.38;101283.25;5055816;28;20470;-69
2024/01/23 09:52:35;;;;;;;8.07;1.43;;;;;;;7.86;86.08;101289.97;5055606;28;20549;-69
2024/01/23 09:55:02;;;;;;;1.70;0.43;;;;;;;7.80;86.28;101272.16;5055846;28;20931;-69
2024/01/23 09:57:30;;;;;;;1.57;0.30;;;;;;;7.81;86.19;101301.56;5055772;28;20952;-69
2024/01/23 09:59:57;;;;;;;1.60;0.40;;;;;;;7.87;85.79;101290.78;5055447;28;20949;-69
2024/01/23 10:02:25;;;;;;;1.83;0.47;;;;;;;7.94;84.77;101311.03;5055174;28;21032;-70
2024/01/23 10:04:53;;;;;;;1.80;0.50;;;;;;;7.94;84.92;101300.25;5055528;28;20442;-70
2024/01/23 10:07:21;;;;;;;1.80;0.50;;;;;;;7.93;85.29;101314.00;5055600;28;20442;-71
2024/01/23 10:09:48;;;;;;;1.60;0.40;;;;;;;7.93;85.63;101305.91;5055098;28;20442;-71
2024/01/23 10:12:15;;;;;;;2.23;0.50;;;;;;;7.84;86.91;101311.00;5055193;28;20466;-70
2024/01/23 10:14:43;;;;;;;1.50;0.30;;;;;;;7.91;86.05;101316.16;5055490;28;20438;-70
2024/01/23 10:17:10;;;;;;;4.10;0.80;;;;;;;7.95;86.35;101322.63;5055858;28;20448;-71
2024/01/23 10:19:37;;;;;;;2.67;0.87;;;;;;;7.98;85.86;101330.22;5055675;28;20434;-71
2024/01/23 10:22:05;;;;;;;1.63;0.40;;;;;;;8.01;86.03;101332.34;5055178;28;20464;-71
2024/01/23 10:24:33;;;;;;;1.60;0.40;;;;;;;8.01;85.85;101333.19;5054744;28;20530;-71
2024/01/23 10:26:59;;;;;;;1.63;0.47;;;;;;;8.07;85.46;101325.91;5055802;28;20529;-70
2024/01/23 10:29:26;;;;;;;1.80;0.50;;;;;;;8.02;86.47;101339.41;5055529;28;20443;-70
2024/01/23 10:31:52;;;;;;;2.20;0.70;;;;;;;8.02;86.91;101358.28;5055074;28;20488;-71
2024/01/23 10:34:20;;;;;;;1.60;0.47;;;;;;;8.12;85.84;101347.50;5055051;28;20469;-70
2024/01/23 10:36:47;;;;;;;1.60;0.40;;;;;;;8.09;85.97;101350.72;5055593;28;20525;-70
2024/01/23 10:39:15;;;;;;;2.00;0.63;;;;;;;8.09;85.95;101354.25;5055286;28;20461;-70
2024/01/23 10:41:45;;;;;;;2.23;0.70;;;;;;;8.07;86.20;101359.09;5054778;28;20458;-70
2024/01/23 10:44:14;;;;;;;2.00;0.60;;;;;;;8.07;86.62;101358.28;5054701;28;20565;-70
2024/01/23 10:46:42;;;;;;;1.90;0.67;;;;;;;8.10;86.89;101365.84;5055175;28;20534;-67
2024/01/23 10:49:08;;;;;;;1.60;0.40;;;;;;;8.06;86.60;101359.38;5055164;28;20438;-68
2024/01/23 10:51:37;;;;;;;1.60;0.40;;;;;;;8.13;86.37;101362.63;5054330;28;20986;-70
2024/01/23 10:54:09;;;;;;;2.27;0.60;;;;;;;8.21;86.71;101370.19;5054262;28;20515;-70
2024/01/23 10:56:45;;;;;;;2.13;0.67;;;;;;;8.20;86.42;101370.47;5054362;28;20863;-70
2024/01/23 10:59:17;;;;;;;1.90;0.67;;;;;;;8.19;85.56;101385.88;5054602;28;20431;-71
2024/01/23 11:01:45;;;;;;;1.60;0.40;;;;;;;8.19;85.98;101380.47;5054423;28;20470;-70
2024/01/23 11:04:11;;;;;;;1.80;0.70;;;;;;;8.20;86.26;101392.06;5053897;28;20519;-70
2024/01/23 11:06:47;;;;;;;24.50;1.37;;;;;;;8.19;86.21;101409.31;5054281;28;20450;-71
2024/01/23 11:09:19;;;;;;;3.80;1.00;;;;;;;8.17;85.83;101397.97;5054620;28;20422;-70
2024/01/23 11:11:53;;;;;;;1.83;0.60;;;;;;;8.18;86.15;101395.00;5054550;28;20538;-71
2024/01/23 11:14:25;;;;;;;3.40;0.80;;;;;;;8.15;87.79;101414.44;5054018;28;20429;-71
2024/01/23 11:17:02;;;;;;;2.97;1.23;;;;;;;8.05;88.12;101404.41;5054790;28;20418;-71
2024/01/23 11:19:28;;;;;;;2.20;0.50;;;;;;;8.12;87.86;101404.19;5053809;28;20487;-71
2024/01/23 11:22:02;;;;;;;3.10;0.87;;;;;;;8.27;86.48;101406.91;5053725;28;20815;-71
2024/01/23 11:24:42;;;;;;;2.13;0.77;;;;;;;8.20;87.04;101400.97;5054360;28;20470;-71
2024/01/23 11:27:20;;;;;;;2.97;1.23;;;;;;;8.23;87.00;101405.00;5054017;28;20472;-70
2024/01/23 11:29:47;;;;;;;1.60;0.40;;;;;;;8.20;87.19;101405.56;5053984;28;20464;-71